sensor_id;sensor_type;location;lat;lon;timestamp;pressure;altitude;pressure_sealevel;temperature;humidity
73516;BME280;61763;51.416;5.442;2023-05-07T00:00:17;101503.66;;;13.44;100.00
73516;BME280;61763;51.416;5.442;2023-05-07T00:02:44;101505.78;;;13.38;100.00
73516;BME280;61763;51.416;5.442;2023-05-07T00:05:11;101511.72;;;13.46;100.00
73516;BME280;61763;51.416;5.442;2023-05-07T00:07:36;101495.97;;;13.53;100.00
73516;BME280;61763;51.416;5.442;2023-05-07T00:10:03;101503.81;;;13.41;100.00
73516;BME280;61763;51.416;5.442;2023-05-07T00:12:29;101500.78;;;13.47;100.00
73516;BME280;61763;51.416;5.442;2023-05-07T00:14:57;101494.88;;;13.57;100.00
73516;BME280;61763;51.416;5.442;2023-05-07T00:17:22;101492.47;;;13.51;100.00
73516;BME280;61763;51.416;5.442;2023-05-07T00:19:48;101492.72;;;13.46;100.00
73516;BME280;61763;51.416;5.442;2023-05-07T00:22:13;101489.84;;;13.49;100.00
73516;BME280;61763;51.416;5.442;2023-05-07T00:24:39;101481.88;;;13.46;100.00
73516;BME280;61763;51.416;5.442;2023-05-07T00:27:04;101489.94;;;13.47;100.00
73516;BME280;61763;51.416;5.442;2023-05-07T00:29:30;101491.47;;;13.36;100.00
73516;BME280;61763;51.416;5.442;2023-05-07T00:31:55;101487.44;;;13.25;100.00
73516;BME280;61763;51.416;5.442;2023-05-07T00:34:21;101487.59;;;13.22;100.00
73516;BME280;61763;51.416;5.442;2023-05-07T00:36:46;101486.69;;;13.22;100.00
73516;BME280;61763;51.416;5.442;2023-05-07T00:39:11;101485.75;;;13.23;100.00
73516;BME280;61763;51.416;5.442;2023-05-07T00:41:37;101488.47;;;13.23;100.00
73516;BME280;61763;51.416;5.442;2023-05-07T00:44:02;101485.13;;;13.18;100.00
73516;BME280;61763;51.416;5.442;2023-05-07T00:46:28;101477.63;;;13.23;100.00
73516;BME280;61763;51.416;5.442;2023-05-07T00:48:55;101482.53;;;13.14;100.00
73516;BME280;61763;51.416;5.442;2023-05-07T00:51:22;101473.69;;;13.11;100.00
73516;BME280;61763;51.416;5.442;2023-05-07T00:53:48;101482.63;;;13.13;100.00
73516;BME280;61763;51.416;5.442;2023-05-07T00:56:13;101473.53;;;13.14;100.00
73516;BME280;61763;51.416;5.442;2023-05-07T00:58:40;101485.66;;;13.07;100.00
73516;BME280;61763;51.416;5.442;2023-05-07T01:01:06;101487.41;;;13.08;100.00
73516;BME280;61763;51.416;5.442;2023-05-07T01:03:31;101490.03;;;13.09;100.00
73516;BME280;61763;51.416;5.442;2023-05-07T01:05:57;101483.75;;;13.09;100.00
73516;BME280;61763;51.416;5.442;2023-05-07T01:08:24;101485.31;;;13.13;100.00
73516;BME280;61763;51.416;5.442;2023-05-07T01:10:52;101481.59;;;13.15;100.00
73516;BME280;61763;51.416;5.442;2023-05-07T01:13:18;101481.34;;;13.20;100.00
73516;BME280;61763;51.416;5.442;2023-05-07T01:15:44;101477.94;;;13.17;100.00
73516;BME280;61763;51.416;5.442;2023-05-07T01:18:10;101478.81;;;13.17;100.00
73516;BME280;61763;51.416;5.442;2023-05-07T01:20:36;101471.69;;;13.14;100.00
73516;BME280;61763;51.416;5.442;2023-05-07T01:23:02;101471.63;;;13.16;100.00
73516;BME280;61763;51.416;5.442;2023-05-07T01:25:28;101461.75;;;13.15;100.00
73516;BME280;61763;51.416;5.442;2023-05-07T01:27:53;101460.78;;;13.16;100.00
73516;BME280;61763;51.416;5.442;2023-05-07T01:30:20;101457.28;;;13.14;100.00
73516;BME280;61763;51.416;5.442;2023-05-07T01:33:00;101454.41;;;13.17;100.00
73516;BME280;61763;51.416;5.442;2023-05-07T01:35:33;101460.84;;;13.14;100.00
73516;BME280;61763;51.416;5.442;2023-05-07T01:38:00;101462.63;;;13.15;100.00
73516;BME280;61763;51.416;5.442;2023-05-07T01:40:26;101466.34;;;13.13;100.00
73516;BME280;61763;51.416;5.442;2023-05-07T01:42:54;101460.41;;;13.06;100.00
73516;BME280;61763;51.416;5.442;2023-05-07T01:45:19;101450.34;;;13.08;100.00
73516;BME280;61763;51.416;5.442;2023-05-07T01:47:45;101449.72;;;13.03;100.00
73516;BME280;61763;51.416;5.442;2023-05-07T01:50:11;101452.59;;;13.00;100.00
73516;BME280;61763;51.416;5.442;2023-05-07T01:52:38;101459.56;;;13.04;100.00
73516;BME280;61763;51.416;5.442;2023-05-07T01:55:04;101449.63;;;13.05;100.00
73516;BME280;61763;51.416;5.442;2023-05-07T01:57:30;101449.78;;;13.02;100.00
73516;BME280;61763;51.416;5.442;2023-05-07T01:59:55;101447.78;;;13.05;100.00
73516;BME280;61763;51.416;5.442;2023-05-07T02:02:21;101443.63;;;12.98;100.00
73516;BME280;61763;51.416;5.442;2023-05-07T02:04:46;101447.38;;;12.95;100.00
73516;BME280;61763;51.416;5.442;2023-05-07T02:07:13;101442.69;;;12.99;100.00
73516;BME280;61763;51.416;5.442;2023-05-07T02:09:38;101447.38;;;12.95;100.00
73516;BME280;61763;51.416;5.442;2023-05-07T02:12:04;101445.72;;;12.93;100.00
73516;BME280;61763;51.416;5.442;2023-05-07T02:14:29;101455.22;;;13.02;100.00
73516;BME280;61763;51.416;5.442;2023-05-07T02:16:55;101455.44;;;12.97;100.00
73516;BME280;61763;51.416;5.442;2023-05-07T02:19:20;101459.91;;;12.98;100.00
73516;BME280;61763;51.416;5.442;2023-05-07T02:21:46;101465.38;;;12.96;100.00
73516;BME280;61763;51.416;5.442;2023-05-07T02:24:13;101466.41;;;12.94;100.00
73516;BME280;61763;51.416;5.442;2023-05-07T02:26:40;101471.53;;;13.00;100.00
73516;BME280;61763;51.416;5.442;2023-05-07T02:29:06;101469.19;;;12.92;100.00
73516;BME280;61763;51.416;5.442;2023-05-07T02:31:31;101468.84;;;13.00;100.00
73516;BME280;61763;51.416;5.442;2023-05-07T02:33:58;101470.56;;;13.01;100.00
73516;BME280;61763;51.416;5.442;2023-05-07T02:36:24;101472.66;;;12.96;100.00
73516;BME280;61763;51.416;5.442;2023-05-07T02:38:49;101462.59;;;12.98;100.00
73516;BME280;61763;51.416;5.442;2023-05-07T02:41:14;101468.69;;;13.03;100.00
73516;BME280;61763;51.416;5.442;2023-05-07T02:43:40;101459.56;;;13.04;100.00
73516;BME280;61763;51.416;5.442;2023-05-07T02:46:07;101464.13;;;13.04;100.00
73516;BME280;61763;51.416;5.442;2023-05-07T02:48:33;101467.63;;;13.06;100.00
73516;BME280;61763;51.416;5.442;2023-05-07T02:50:59;101467.94;;;13.00;100.00
73516;BME280;61763;51.416;5.442;2023-05-07T02:53:25;101468.53;;;13.06;100.00
73516;BME280;61763;51.416;5.442;2023-05-07T02:55:56;101461.19;;;13.08;100.00
73516;BME280;61763;51.416;5.442;2023-05-07T02:58:21;101467.69;;;13.04;100.00
73516;BME280;61763;51.416;5.442;2023-05-07T03:00:47;101460.63;;;13.02;100.00
73516;BME280;61763;51.416;5.442;2023-05-07T03:03:12;101463.34;;;13.02;100.00
73516;BME280;61763;51.416;5.442;2023-05-07T03:05:38;101459.91;;;12.98;100.00
73516;BME280;61763;51.416;5.442;2023-05-07T03:08:03;101457.75;;;13.05;100.00
73516;BME280;61763;51.416;5.442;2023-05-07T03:10:30;101464.72;;;13.10;100.00
73516;BME280;61763;51.416;5.442;2023-05-07T03:12:55;101459.75;;;13.19;100.00
73516;BME280;61763;51.416;5.442;2023-05-07T03:15:20;101459.28;;;13.10;100.00
73516;BME280;61763;51.416;5.442;2023-05-07T03:17:47;101453.22;;;13.05;100.00
73516;BME280;61763;51.416;5.442;2023-05-07T03:20:12;101453.88;;;13.10;100.00
73516;BME280;61763;51.416;5.442;2023-05-07T03:22:38;101455.75;;;13.08;100.00
73516;BME280;61763;51.416;5.442;2023-05-07T03:25:04;101451.25;;;13.09;100.00
73516;BME280;61763;51.416;5.442;2023-05-07T03:27:29;101449.72;;;13.03;100.00
73516;BME280;61763;51.416;5.442;2023-05-07T03:29:55;101450.50;;;13.05;100.00
73516;BME280;61763;51.416;5.442;2023-05-07T03:32:20;101445.00;;;13.07;100.00
73516;BME280;61763;51.416;5.442;2023-05-07T03:34:47;101441.25;;;13.09;100.00
73516;BME280;61763;51.416;5.442;2023-05-07T03:37:12;101443.22;;;13.06;100.00
73516;BME280;61763;51.416;5.442;2023-05-07T03:39:37;101439.66;;;13.05;100.00
73516;BME280;61763;51.416;5.442;2023-05-07T03:42:03;101446.91;;;13.05;100.00
73516;BME280;61763;51.416;5.442;2023-05-07T03:44:28;101435.19;;;13.04;100.00
73516;BME280;61763;51.416;5.442;2023-05-07T03:46:54;101434.41;;;13.02;100.00
73516;BME280;61763;51.416;5.442;2023-05-07T03:49:20;101436.31;;;13.00;100.00
73516;BME280;61763;51.416;5.442;2023-05-07T03:51:46;101441.81;;;12.99;100.00
73516;BME280;61763;51.416;5.442;2023-05-07T03:54:11;101438.53;;;12.92;100.00
73516;BME280;61763;51.416;5.442;2023-05-07T03:56:37;101452.16;;;12.90;100.00
73516;BME280;61763;51.416;5.442;2023-05-07T03:59:02;101441.63;;;12.84;100.00
73516;BME280;61763;51.416;5.442;2023-05-07T04:01:27;101447.16;;;13.00;100.00
73516;BME280;61763;51.416;5.442;2023-05-07T04:03:53;101452.09;;;13.09;100.00
73516;BME280;61763;51.416;5.442;2023-05-07T04:06:18;101454.31;;;13.01;100.00
73516;BME280;61763;51.416;5.442;2023-05-07T04:08:44;101450.75;;;13.01;100.00
73516;BME280;61763;51.416;5.442;2023-05-07T04:11:09;101458.63;;;13.05;100.00
73516;BME280;61763;51.416;5.442;2023-05-07T04:13:34;101457.75;;;13.05;100.00
73516;BME280;61763;51.416;5.442;2023-05-07T04:16:02;101464.13;;;13.04;100.00
73516;BME280;61763;51.416;5.442;2023-05-07T04:18:27;101466.34;;;13.13;100.00
73516;BME280;61763;51.416;5.442;2023-05-07T04:20:52;101471.31;;;13.05;100.00
73516;BME280;61763;51.416;5.442;2023-05-07T04:23:18;101475.53;;;13.10;100.00
73516;BME280;61763;51.416;5.442;2023-05-07T04:25:43;101473.78;;;13.09;100.00
73516;BME280;61763;51.416;5.442;2023-05-07T04:28:09;101470.34;;;13.06;100.00
73516;BME280;61763;51.416;5.442;2023-05-07T04:30:34;101476.81;;;13.03;100.00
73516;BME280;61763;51.416;5.442;2023-05-07T04:32:59;101472.34;;;13.02;100.00
73516;BME280;61763;51.416;5.442;2023-05-07T04:35:25;101468.69;;;13.03;100.00
73516;BME280;61763;51.416;5.442;2023-05-07T04:37:50;101465.88;;;13.05;100.00
73516;BME280;61763;51.416;5.442;2023-05-07T04:40:15;101462.88;;;13.11;100.00
73516;BME280;61763;51.416;5.442;2023-05-07T04:42:41;101466.00;;;13.21;100.00
73516;BME280;61763;51.416;5.442;2023-05-07T04:45:07;101461.19;;;13.26;100.00
73516;BME280;61763;51.416;5.442;2023-05-07T04:47:33;101459.25;;;13.28;100.00
73516;BME280;61763;51.416;5.442;2023-05-07T04:49:59;101468.28;;;13.28;100.00
73516;BME280;61763;51.416;5.442;2023-05-07T04:52:24;101468.91;;;13.33;100.00
73516;BME280;61763;51.416;5.442;2023-05-07T04:54:50;101472.47;;;13.36;100.00
73516;BME280;61763;51.416;5.442;2023-05-07T04:57:15;101476.19;;;13.33;100.00
73516;BME280;61763;51.416;5.442;2023-05-07T04:59:43;101477.81;;;13.37;100.00
73516;BME280;61763;51.416;5.442;2023-05-07T05:02:09;101478.69;;;13.38;100.00
73516;BME280;61763;51.416;5.442;2023-05-07T05:04:35;101473.47;;;13.33;100.00
73516;BME280;61763;51.416;5.442;2023-05-07T05:07:00;101476.19;;;13.33;100.00
73516;BME280;61763;51.416;5.442;2023-05-07T05:09:25;101482.63;;;13.30;100.00
73516;BME280;61763;51.416;5.442;2023-05-07T05:11:51;101487.03;;;13.33;100.00
73516;BME280;61763;51.416;5.442;2023-05-07T05:14:16;101493.41;;;13.32;100.00
73516;BME280;61763;51.416;5.442;2023-05-07T05:16:43;101484.97;;;13.38;100.00
73516;BME280;61763;51.416;5.442;2023-05-07T05:19:08;101494.00;;;13.39;100.00
73516;BME280;61763;51.416;5.442;2023-05-07T05:21:33;101491.91;;;13.44;100.00
73516;BME280;61763;51.416;5.442;2023-05-07T05:23:59;101485.13;;;13.53;100.00
73516;BME280;61763;51.416;5.442;2023-05-07T05:26:24;101492.94;;;13.59;100.00
73516;BME280;61763;51.416;5.442;2023-05-07T05:28:50;101493.16;;;13.72;100.00
73516;BME280;61763;51.416;5.442;2023-05-07T05:31:16;101482.31;;;13.72;100.00
73516;BME280;61763;51.416;5.442;2023-05-07T05:33:41;101487.97;;;13.84;100.00
73516;BME280;61763;51.416;5.442;2023-05-07T05:36:09;101489.31;;;13.93;100.00
73516;BME280;61763;51.416;5.442;2023-05-07T05:38:37;101496.50;;;13.94;100.00
73516;BME280;61763;51.416;5.442;2023-05-07T05:41:02;101498.16;;;13.97;100.00
73516;BME280;61763;51.416;5.442;2023-05-07T05:43:28;101496.88;;;14.04;100.00
73516;BME280;61763;51.416;5.442;2023-05-07T05:45:53;101495.66;;;14.10;100.00
73516;BME280;61763;51.416;5.442;2023-05-07T05:48:20;101500.09;;;14.28;100.00
73516;BME280;61763;51.416;5.442;2023-05-07T05:50:45;101505.91;;;14.20;100.00
73516;BME280;61763;51.416;5.442;2023-05-07T05:53:11;101499.09;;;14.29;100.00
73516;BME280;61763;51.416;5.442;2023-05-07T05:55:36;101497.28;;;14.30;100.00
73516;BME280;61763;51.416;5.442;2023-05-07T05:58:02;101497.72;;;14.38;100.00
73516;BME280;61763;51.416;5.442;2023-05-07T06:00:27;101491.88;;;14.46;100.00
73516;BME280;61763;51.416;5.442;2023-05-07T06:02:53;101497.22;;;14.47;100.00
73516;BME280;61763;51.416;5.442;2023-05-07T06:05:18;101493.78;;;14.60;100.00
73516;BME280;61763;51.416;5.442;2023-05-07T06:07:43;101494.28;;;14.68;100.00
73516;BME280;61763;51.416;5.442;2023-05-07T06:10:09;101494.50;;;14.79;100.00
73516;BME280;61763;51.416;5.442;2023-05-07T06:12:34;101492.75;;;14.94;100.00
73516;BME280;61763;51.416;5.442;2023-05-07T06:15:00;101492.31;;;15.02;100.00
73516;BME280;61763;51.416;5.442;2023-05-07T06:17:25;101500.09;;;15.08;100.00
73516;BME280;61763;51.416;5.442;2023-05-07T06:19:51;101493.44;;;15.14;100.00
73516;BME280;61763;51.416;5.442;2023-05-07T06:22:17;101499.28;;;15.22;100.00
73516;BME280;61763;51.416;5.442;2023-05-07T06:24:42;101497.00;;;15.14;100.00
73516;BME280;61763;51.416;5.442;2023-05-07T06:27:08;101501.50;;;15.15;100.00
73516;BME280;61763;51.416;5.442;2023-05-07T06:29:35;101496.44;;;15.23;100.00
73516;BME280;61763;51.416;5.442;2023-05-07T06:32:26;101495.31;;;15.28;100.00
73516;BME280;61763;51.416;5.442;2023-05-07T06:34:51;101499.31;;;15.36;100.00
73516;BME280;61763;51.416;5.442;2023-05-07T06:37:17;101499.94;;;15.41;100.00
73516;BME280;61763;51.416;5.442;2023-05-07T06:39:42;101498.38;;;15.37;100.00
73516;BME280;61763;51.416;5.442;2023-05-07T06:42:07;101497.22;;;15.41;100.00
73516;BME280;61763;51.416;5.442;2023-05-07T06:44:33;101490.50;;;15.47;100.00
73516;BME280;61763;51.416;5.442;2023-05-07T06:46:58;101495.69;;;15.66;100.00
73516;BME280;61763;51.416;5.442;2023-05-07T06:49:24;101507.38;;;15.68;100.00
73516;BME280;61763;51.416;5.442;2023-05-07T06:51:49;101499.59;;;15.76;100.00
73516;BME280;61763;51.416;5.442;2023-05-07T06:54:14;101511.34;;;15.93;100.00
73516;BME280;61763;51.416;5.442;2023-05-07T06:56:40;101502.09;;;16.10;100.00
73516;BME280;61763;51.416;5.442;2023-05-07T06:59:06;101510.06;;;16.13;100.00
73516;BME280;61763;51.416;5.442;2023-05-07T07:01:31;101513.50;;;16.17;100.00
73516;BME280;61763;51.416;5.442;2023-05-07T07:03:57;101521.56;;;16.18;100.00
73516;BME280;61763;51.416;5.442;2023-05-07T07:06:22;101506.28;;;16.16;100.00
73516;BME280;61763;51.416;5.442;2023-05-07T07:08:48;101508.06;;;16.17;100.00
73516;BME280;61763;51.416;5.442;2023-05-07T07:11:13;101510.88;;;16.15;100.00
73516;BME280;61763;51.416;5.442;2023-05-07T07:13:38;101511.34;;;16.07;100.00
73516;BME280;61763;51.416;5.442;2023-05-07T07:16:05;101517.19;;;16.16;100.00
73516;BME280;61763;51.416;5.442;2023-05-07T07:18:32;101510.19;;;16.26;100.00
73516;BME280;61763;51.416;5.442;2023-05-07T07:20:57;101511.53;;;16.19;100.00
73516;BME280;61763;51.416;5.442;2023-05-07T07:23:23;101509.56;;;16.35;100.00
73516;BME280;61763;51.416;5.442;2023-05-07T07:25:48;101504.31;;;16.32;100.00
73516;BME280;61763;51.416;5.442;2023-05-07T07:28:15;101515.13;;;16.34;100.00
73516;BME280;61763;51.416;5.442;2023-05-07T07:30:40;101518.25;;;16.42;100.00
73516;BME280;61763;51.416;5.442;2023-05-07T07:33:06;101517.25;;;16.57;100.00
73516;BME280;61763;51.416;5.442;2023-05-07T07:35:32;101517.53;;;16.38;100.00
73516;BME280;61763;51.416;5.442;2023-05-07T07:37:57;101522.47;;;16.60;100.00
73516;BME280;61763;51.416;5.442;2023-05-07T07:40:23;101525.50;;;16.70;100.00
73516;BME280;61763;51.416;5.442;2023-05-07T07:42:48;101521.50;;;16.76;100.00
73516;BME280;61763;51.416;5.442;2023-05-07T07:45:14;101521.69;;;16.73;100.00
73516;BME280;61763;51.416;5.442;2023-05-07T07:47:40;101527.16;;;16.73;100.00
73516;BME280;61763;51.416;5.442;2023-05-07T07:50:06;101522.75;;;16.85;100.00
73516;BME280;61763;51.416;5.442;2023-05-07T07:52:32;101507.13;;;17.01;100.00
73516;BME280;61763;51.416;5.442;2023-05-07T07:54:57;101522.34;;;17.18;100.00
73516;BME280;61763;51.416;5.442;2023-05-07T07:57:23;101518.22;;;17.12;100.00
73516;BME280;61763;51.416;5.442;2023-05-07T07:59:49;101519.25;;;17.37;100.00
73516;BME280;61763;51.416;5.442;2023-05-07T08:02:15;101522.59;;;17.55;100.00
73516;BME280;61763;51.416;5.442;2023-05-07T08:04:40;101522.25;;;17.60;100.00
73516;BME280;61763;51.416;5.442;2023-05-07T08:07:08;101512.63;;;17.54;100.00
73516;BME280;61763;51.416;5.442;2023-05-07T08:09:33;101515.72;;;17.62;100.00
73516;BME280;61763;51.416;5.442;2023-05-07T08:11:59;101515.28;;;17.81;100.00
73516;BME280;61763;51.416;5.442;2023-05-07T08:14:24;101515.91;;;17.99;100.00
73516;BME280;61763;51.416;5.442;2023-05-07T08:16:50;101516.75;;;18.00;100.00
73516;BME280;61763;51.416;5.442;2023-05-07T08:19:15;101521.88;;;18.30;100.00
73516;BME280;61763;51.416;5.442;2023-05-07T08:21:40;101521.19;;;18.52;100.00
73516;BME280;61763;51.416;5.442;2023-05-07T08:24:06;101524.03;;;19.01;100.00
73516;BME280;61763;51.416;5.442;2023-05-07T08:26:31;101523.72;;;18.80;100.00
73516;BME280;61763;51.416;5.442;2023-05-07T08:28:57;101525.22;;;19.10;100.00
73516;BME280;61763;51.416;5.442;2023-05-07T08:31:22;101531.94;;;19.17;100.00
73516;BME280;61763;51.416;5.442;2023-05-07T08:33:48;101533.72;;;19.53;100.00
73516;BME280;61763;51.416;5.442;2023-05-07T08:36:15;101538.66;;;19.13;100.00
73516;BME280;61763;51.416;5.442;2023-05-07T08:38:41;101535.69;;;18.79;100.00
73516;BME280;61763;51.416;5.442;2023-05-07T08:41:10;101535.22;;;19.22;100.00
73516;BME280;61763;51.416;5.442;2023-05-07T08:43:36;101538.63;;;19.61;100.00
73516;BME280;61763;51.416;5.442;2023-05-07T08:46:04;101533.44;;;19.45;100.00
73516;BME280;61763;51.416;5.442;2023-05-07T08:48:29;101538.81;;;19.58;100.00
73516;BME280;61763;51.416;5.442;2023-05-07T08:50:58;101537.97;;;19.93;100.00
73516;BME280;61763;51.416;5.442;2023-05-07T08:53:24;101539.06;;;19.90;100.00
73516;BME280;61763;51.416;5.442;2023-05-07T08:55:49;101539.63;;;20.07;100.00
73516;BME280;61763;51.416;5.442;2023-05-07T08:58:15;101527.78;;;20.06;100.00
73516;BME280;61763;51.416;5.442;2023-05-07T09:00:41;101526.44;;;20.23;100.00
73516;BME280;61763;51.416;5.442;2023-05-07T09:03:07;101535.28;;;20.38;100.00
73516;BME280;61763;51.416;5.442;2023-05-07T09:05:32;101535.91;;;20.53;100.00
73516;BME280;61763;51.416;5.442;2023-05-07T09:08:06;101537.25;;;20.47;100.00
73516;BME280;61763;51.416;5.442;2023-05-07T09:10:33;101540.63;;;20.28;100.00
73516;BME280;61763;51.416;5.442;2023-05-07T09:12:58;101542.25;;;20.54;100.00
73516;BME280;61763;51.416;5.442;2023-05-07T09:15:24;101539.88;;;20.60;100.00
73516;BME280;61763;51.416;5.442;2023-05-07T09:17:50;101543.78;;;20.80;100.00
73516;BME280;61763;51.416;5.442;2023-05-07T09:20:16;101543.38;;;20.85;100.00
73516;BME280;61763;51.416;5.442;2023-05-07T09:22:41;101534.75;;;21.01;100.00
73516;BME280;61763;51.416;5.442;2023-05-07T09:25:08;101540.94;;;21.14;100.00
73516;BME280;61763;51.416;5.442;2023-05-07T09:27:34;101552.66;;;21.16;100.00
73516;BME280;61763;51.416;5.442;2023-05-07T09:30:03;101543.72;;;21.35;100.00
73516;BME280;61763;51.416;5.442;2023-05-07T09:32:28;101553.66;;;21.48;100.00
73516;BME280;61763;51.416;5.442;2023-05-07T09:34:55;101540.03;;;21.58;100.00
73516;BME280;61763;51.416;5.442;2023-05-07T09:37:21;101545.88;;;21.32;100.00
73516;BME280;61763;51.416;5.442;2023-05-07T09:39:48;101540.31;;;21.43;100.00
73516;BME280;61763;51.416;5.442;2023-05-07T09:42:14;101541.63;;;21.72;100.00
73516;BME280;61763;51.416;5.442;2023-05-07T09:44:43;101540.72;;;21.39;100.00
73516;BME280;61763;51.416;5.442;2023-05-07T09:47:10;101536.34;;;21.36;100.00
73516;BME280;61763;51.416;5.442;2023-05-07T09:49:39;101544.31;;;21.50;100.00
73516;BME280;61763;51.416;5.442;2023-05-07T09:52:06;101539.47;;;21.54;100.00
73516;BME280;61763;51.416;5.442;2023-05-07T09:54:34;101549.31;;;21.13;100.00
73516;BME280;61763;51.416;5.442;2023-05-07T09:57:04;101545.13;;;21.30;100.00
73516;BME280;61763;51.416;5.442;2023-05-07T09:59:31;101547.41;;;21.25;100.00
73516;BME280;61763;51.416;5.442;2023-05-07T10:01:58;101547.47;;;21.67;100.00
73516;BME280;61763;51.416;5.442;2023-05-07T10:04:25;101541.41;;;22.05;97.11
73516;BME280;61763;51.416;5.442;2023-05-07T10:06:51;101544.41;;;22.02;94.38
73516;BME280;61763;51.416;5.442;2023-05-07T10:09:17;101540.34;;;21.97;95.16
73516;BME280;61763;51.416;5.442;2023-05-07T10:11:43;101542.78;;;22.21;94.00
73516;BME280;61763;51.416;5.442;2023-05-07T10:14:09;101543.81;;;22.51;89.58
73516;BME280;61763;51.416;5.442;2023-05-07T10:16:36;101538.56;;;22.79;86.94
73516;BME280;61763;51.416;5.442;2023-05-07T10:19:06;101531.94;;;23.01;85.49
73516;BME280;61763;51.416;5.442;2023-05-07T10:21:39;101527.75;;;23.06;92.11
73516;BME280;61763;51.416;5.442;2023-05-07T10:24:16;101532.31;;;23.37;81.48
73516;BME280;61763;51.416;5.442;2023-05-07T10:26:48;101527.19;;;23.03;88.26
73516;BME280;61763;51.416;5.442;2023-05-07T10:29:21;101534.06;;;23.28;85.14
73516;BME280;61763;51.416;5.442;2023-05-07T10:31:52;101526.50;;;23.11;83.69
73516;BME280;61763;51.416;5.442;2023-05-07T10:34:23;101533.19;;;23.47;83.87
73516;BME280;61763;51.416;5.442;2023-05-07T10:36:52;101531.88;;;23.41;79.47
73516;BME280;61763;51.416;5.442;2023-05-07T10:39:19;101539.53;;;23.67;78.02
73516;BME280;61763;51.416;5.442;2023-05-07T10:41:45;101534.19;;;23.36;79.12
73516;BME280;61763;51.416;5.442;2023-05-07T10:44:11;101541.75;;;23.44;78.84
73516;BME280;61763;51.416;5.442;2023-05-07T10:46:36;101539.13;;;23.52;76.76
73516;BME280;61763;51.416;5.442;2023-05-07T10:51:29;101548.53;;;23.79;81.26
73516;BME280;61763;51.416;5.442;2023-05-07T10:56:42;101547.97;;;23.75;78.14
73516;BME280;61763;51.416;5.442;2023-05-07T11:01:55;101553.78;;;23.23;75.81
73516;BME280;61763;51.416;5.442;2023-05-07T11:04:23;101546.66;;;23.21;76.09
73516;BME280;61763;51.416;5.442;2023-05-07T11:17:28;101546.94;;;22.67;80.31
73516;BME280;61763;51.416;5.442;2023-05-07T11:19:57;101545.50;;;22.73;80.50
73516;BME280;61763;51.416;5.442;2023-05-07T11:25:04;101539.59;;;22.87;79.37
73516;BME280;61763;51.416;5.442;2023-05-07T11:27:29;101535.59;;;23.01;78.07
73516;BME280;61763;51.416;5.442;2023-05-07T11:29:55;101534.34;;;23.25;76.76
73516;BME280;61763;51.416;5.442;2023-05-07T11:32:31;101541.47;;;23.47;75.66
73516;BME280;61763;51.416;5.442;2023-05-07T11:34:58;101534.03;;;23.67;74.50
73516;BME280;61763;51.416;5.442;2023-05-07T11:37:25;101540.69;;;23.84;74.97
73516;BME280;61763;51.416;5.442;2023-05-07T11:40:02;101541.31;;;23.49;71.88
73516;BME280;61763;51.416;5.442;2023-05-07T11:42:30;101537.69;;;23.58;74.25
73516;BME280;61763;51.416;5.442;2023-05-07T11:44:57;101538.25;;;23.52;72.42
73516;BME280;61763;51.416;5.442;2023-05-07T11:47:22;101537.97;;;23.65;71.55
73516;BME280;61763;51.416;5.442;2023-05-07T11:49:50;101540.00;;;23.72;72.35
73516;BME280;61763;51.416;5.442;2023-05-07T11:52:18;101542.16;;;23.20;72.22
73516;BME280;61763;51.416;5.442;2023-05-07T11:54:54;101542.66;;;23.04;69.51
73516;BME280;61763;51.416;5.442;2023-05-07T11:57:21;101542.25;;;22.99;76.07
73516;BME280;61763;51.416;5.442;2023-05-07T11:59:47;101541.09;;;23.01;77.07
73516;BME280;61763;51.416;5.442;2023-05-07T12:02:17;101545.94;;;22.78;79.32
73516;BME280;61763;51.416;5.442;2023-05-07T12:04:42;101544.50;;;22.43;80.31
73516;BME280;61763;51.416;5.442;2023-05-07T12:07:14;101537.41;;;22.19;80.27
73516;BME280;61763;51.416;5.442;2023-05-07T12:09:41;101538.91;;;21.81;83.63
73516;BME280;61763;51.416;5.442;2023-05-07T12:12:07;101535.69;;;21.55;83.11
73516;BME280;61763;51.416;5.442;2023-05-07T12:14:32;101544.72;;;21.34;86.02
73516;BME280;61763;51.416;5.442;2023-05-07T12:17:01;101554.88;;;21.23;87.76
73516;BME280;61763;51.416;5.442;2023-05-07T12:19:30;101566.94;;;20.88;93.92
73516;BME280;61763;51.416;5.442;2023-05-07T12:21:56;101583.13;;;20.45;100.00
73516;BME280;61763;51.416;5.442;2023-05-07T12:24:22;101615.50;;;19.34;100.00
73516;BME280;61763;51.416;5.442;2023-05-07T12:26:48;101641.97;;;17.79;100.00
73516;BME280;61763;51.416;5.442;2023-05-07T12:29:13;101666.41;;;16.82;100.00
73516;BME280;61763;51.416;5.442;2023-05-07T12:31:42;101676.88;;;15.54;100.00
73516;BME280;61763;51.416;5.442;2023-05-07T12:34:10;101664.94;;;14.93;100.00
73516;BME280;61763;51.416;5.442;2023-05-07T12:36:39;101664.41;;;14.35;100.00
73516;BME280;61763;51.416;5.442;2023-05-07T12:39:08;101658.97;;;13.83;100.00
73516;BME280;61763;51.416;5.442;2023-05-07T12:41:57;101651.59;;;13.50;100.00
73516;BME280;61763;51.416;5.442;2023-05-07T12:44:25;101646.09;;;13.32;100.00
73516;BME280;61763;51.416;5.442;2023-05-07T12:46:53;101648.63;;;13.37;100.00
73516;BME280;61763;51.416;5.442;2023-05-07T12:49:19;101646.66;;;13.58;100.00
73516;BME280;61763;51.416;5.442;2023-05-07T12:51:47;101655.78;;;13.92;100.00
73516;BME280;61763;51.416;5.442;2023-05-07T12:54:14;101671.56;;;14.36;100.00
73516;BME280;61763;51.416;5.442;2023-05-07T12:56:40;101676.22;;;14.69;100.00